Wednesday, April 16, 2014
16:02 UTC
  |  Log In   |  Register Free
Airport Search:

Furnace Creek Airport
(L06)

Furnace Creek Airport Diagram
No Airport Diagram Available

FAA data valid effective April 3, 2014 until May 29, 2014 (unless otherwise noted).

 
 
 
 
 
 
 
 
 
 
 
 
 
 

Current Aviation Weather for Furnace Creek Airport (L06)

The most recent METAR observation for KINS was updated at: 1558 UTC
METAR Summary (Translated METAR)
KINS
161558Z AUTO 00000KT 10SM CLR 18/M09 A2987 RMK AO2 SLP080 T01791089
KVGT
(32.3 nm SE from KINS)
161453Z 30003KT 10SM CLR 17/M07 A2982 RMK AO2 SLP097 T01721067 51020
TAF Summary (Translated TAF)
KINS
1611/1717 26009KT 9999 SCT200 QNH2980INS BECMG 1614/1615 04009KT 9999 SCT200 QNH2975INS BECMG 1702/1703 28009KT 9999 FEW200 QNH2974INS BECMG 1715/1716 09009KT 9999 FEW200 QNH2985INS TX28/1621Z TN10/1612Z
KVGT
(32.3 nm SE from KINS)
161125Z 1612/1712 31006KT P6SM FEW250 FM161800 07006KT P6SM FEW250 FM170300 13006KT P6SM FEW250 FM170600 33006KT P6SM FEW250
  Airport Weather Conditions for L06

Current weather conditions are
not available for L06


The nearest NOAA weather station
is at INS, (58.7 nm NE from L06)
  
 Current Weather at INS
55° F
A Few Clouds
Southwest winds at 2.3 mph
INS NOAA Radar

Pressure: 29.87 in
Humidity: 22%
Wind: Southwest at 2.3 MPH (2 KT)
Dew Point: 16.9°F
Visibility: 10.00 mi


Airport Weather Forecast for L06

Translated METAR and TAF for KINS
Translated METAR for KINS (1602 UTC 16 April 2014)
found at http://aviationweather.gov/adds/metars/
 
METAR text: KINS 161558Z AUTO 00000KT 10SM CLR 18/M09 A2987 RMK AO2 SLP080 T01791089
Conditions at: KINS (INDIAN SPRINGS , NV, US) observed 1558 UTC 16 April 2014
Temperature: 17.9°C (64°F)
Dewpoint: -8.9°C (16°F) [RH = 15%]
Pressure (altimeter): 29.87 inches Hg (1011.6 mb)
[Sea-level pressure: 1008.0 mb]
Winds: calm
Visibility: 10 or more miles (16+ km)
Ceiling: at least 12,000 feet AGL
Clouds: sky clear below 12,000 feet AGL
Weather: automated observation with no human augmentation;
there may or may not be significant weather present at this time
Translated TAF for KINS
Forecast for: KINS (INDIAN SPRINGS , NV, US)
TAF Text: TAF KINS 1611/1717 26009KT 9999 SCT200 QNH2980INS
Forecast period: 1100 to 1400 UTC 16 April 2014
Forecast type: FROM: standard forecast or significant change
Winds: from the W (260 degrees) at 10 MPH (9 knots; 4.7 m/s)
Visibility: 6 or more miles (10+ km)
Clouds: scattered clouds at 20000 feet AGL
Weather: no significant weather forecast for this period
TAF Text: BECMG 1614/1615 04009KT 9999 SCT200 QNH2975INS
Forecast period: 1400 UTC 16 April 2014 to 0200 UTC 17 April 2014
Forecast type: BECOMING: Conditions expected to become as follows by 1500 UTC 16 April 2014
Winds: from the NE (40 degrees) at 10 MPH (9 knots; 4.7 m/s)
Visibility: 6 or more miles (10+ km)
Clouds: scattered clouds at 20000 feet AGL
Weather: no significant weather forecast for this period
TAF Text: BECMG 1702/1703 28009KT 9999 FEW200 QNH2974INS
Forecast period: 0200 to 1500 UTC 17 April 2014
Forecast type: BECOMING: Conditions expected to become as follows by 0300 UTC 17 April 2014
Winds: from the W (280 degrees) at 10 MPH (9 knots; 4.7 m/s)
Visibility: 6 or more miles (10+ km)
Clouds: few clouds at 20000 feet AGL
Weather: no significant weather forecast for this period
TAF Text: BECMG 1715/1716 09009KT 9999 FEW200 QNH2985INS TX28/1621Z TN10/1612Z
Forecast period: 1500 to 1700 UTC 17 April 2014
Forecast type: BECOMING: Conditions expected to become as follows by 1600 UTC 17 April 2014
Winds: from the E (90 degrees) at 10 MPH (9 knots; 4.7 m/s)
Visibility: 6 or more miles (10+ km)
Clouds: few clouds at 20000 feet AGL
Weather: no significant weather forecast for this period

Find All Airport Services Find A Hotel Find A Rental Car Find A Golf Course Find A Restaurant $100 Hamburger



FBO's on the Field
FBO Company Facility Photos Services Transportation Aviation Fuel Prices: Prices include tax
Catering Weather Repair Courtesy Rental Type 100LL JetA JetA+ MOGAS 8087
 
Add another FBO Facility Photos Catering Weather Repair Courtesy Rental Type 100LL JetA JetA+ MOGAS 8087
Services Transportation Aviation Fuel Prices: Prices include tax
There are no FBO's currently reporting fuel at L06. List your FBO now


GlobalAir.com Airport Resource Center model-print
model-print
model-print
model-print